sensor_id;sensor_type;location;lat;lon;timestamp;P1;durP1;ratioP1;P2;durP2;ratioP2
68398;SDS011;56258;52.196;13.868;2023-02-15T00:01:47;6.47;;;2.40;;
68398;SDS011;56258;52.196;13.868;2023-02-15T00:04:14;7.22;;;2.63;;
68398;SDS011;56258;52.196;13.868;2023-02-15T00:06:44;6.85;;;2.38;;
68398;SDS011;56258;52.196;13.868;2023-02-15T00:09:11;6.95;;;2.80;;
68398;SDS011;56258;52.196;13.868;2023-02-15T00:11:38;7.27;;;2.77;;
68398;SDS011;56258;52.196;13.868;2023-02-15T00:14:18;6.63;;;2.38;;
68398;SDS011;56258;52.196;13.868;2023-02-15T00:16:46;6.93;;;2.85;;
68398;SDS011;56258;52.196;13.868;2023-02-15T00:19:14;6.70;;;2.50;;
68398;SDS011;56258;52.196;13.868;2023-02-15T00:21:42;6.97;;;2.63;;
68398;SDS011;56258;52.196;13.868;2023-02-15T00:24:10;6.80;;;2.37;;
68398;SDS011;56258;52.196;13.868;2023-02-15T00:26:39;7.43;;;2.70;;
68398;SDS011;56258;52.196;13.868;2023-02-15T00:29:06;7.68;;;2.70;;
68398;SDS011;56258;52.196;13.868;2023-02-15T00:31:34;6.40;;;2.30;;
68398;SDS011;56258;52.196;13.868;2023-02-15T00:34:04;7.18;;;2.53;;
68398;SDS011;56258;52.196;13.868;2023-02-15T00:36:32;7.33;;;3.00;;
68398;SDS011;56258;52.196;13.868;2023-02-15T00:38:59;6.47;;;2.40;;
68398;SDS011;56258;52.196;13.868;2023-02-15T00:41:26;7.13;;;2.65;;
68398;SDS011;56258;52.196;13.868;2023-02-15T00:43:52;6.20;;;2.67;;
68398;SDS011;56258;52.196;13.868;2023-02-15T00:46:19;6.78;;;2.60;;
68398;SDS011;56258;52.196;13.868;2023-02-15T00:48:46;6.70;;;2.50;;
68398;SDS011;56258;52.196;13.868;2023-02-15T00:51:12;6.85;;;2.67;;
68398;SDS011;56258;52.196;13.868;2023-02-15T00:53:39;6.95;;;2.72;;
68398;SDS011;56258;52.196;13.868;2023-02-15T00:56:06;6.95;;;2.60;;
68398;SDS011;56258;52.196;13.868;2023-02-15T00:58:32;6.50;;;2.50;;
68398;SDS011;56258;52.196;13.868;2023-02-15T01:01:03;6.37;;;2.07;;
68398;SDS011;56258;52.196;13.868;2023-02-15T01:03:31;6.82;;;2.85;;
68398;SDS011;56258;52.196;13.868;2023-02-15T01:05:59;6.68;;;2.50;;
68398;SDS011;56258;52.196;13.868;2023-02-15T01:08:26;6.53;;;2.50;;
68398;SDS011;56258;52.196;13.868;2023-02-15T01:10:53;6.47;;;2.45;;
68398;SDS011;56258;52.196;13.868;2023-02-15T01:13:20;6.27;;;2.10;;
68398;SDS011;56258;52.196;13.868;2023-02-15T01:15:52;7.18;;;2.33;;
68398;SDS011;56258;52.196;13.868;2023-02-15T01:18:20;6.45;;;2.40;;
68398;SDS011;56258;52.196;13.868;2023-02-15T01:20:47;6.60;;;2.55;;
68398;SDS011;56258;52.196;13.868;2023-02-15T01:23:14;6.35;;;2.33;;
68398;SDS011;56258;52.196;13.868;2023-02-15T01:25:42;6.30;;;2.40;;
68398;SDS011;56258;52.196;13.868;2023-02-15T01:28:09;6.32;;;2.28;;
68398;SDS011;56258;52.196;13.868;2023-02-15T01:30:35;6.15;;;2.40;;
68398;SDS011;56258;52.196;13.868;2023-02-15T01:33:02;6.38;;;2.42;;
68398;SDS011;56258;52.196;13.868;2023-02-15T01:35:29;7.57;;;2.90;;
68398;SDS011;56258;52.196;13.868;2023-02-15T01:37:55;6.60;;;2.27;;
68398;SDS011;56258;52.196;13.868;2023-02-15T01:40:23;6.07;;;2.45;;
68398;SDS011;56258;52.196;13.868;2023-02-15T01:42:53;6.97;;;2.67;;
68398;SDS011;56258;52.196;13.868;2023-02-15T01:45:23;6.80;;;2.50;;
68398;SDS011;56258;52.196;13.868;2023-02-15T01:50:30;7.07;;;2.77;;
68398;SDS011;56258;52.196;13.868;2023-02-15T01:55:29;6.85;;;2.42;;
68398;SDS011;56258;52.196;13.868;2023-02-15T01:58:00;7.72;;;2.70;;
68398;SDS011;56258;52.196;13.868;2023-02-15T02:00:26;7.53;;;3.05;;
68398;SDS011;56258;52.196;13.868;2023-02-15T02:02:54;7.07;;;2.50;;
68398;SDS011;56258;52.196;13.868;2023-02-15T02:05:22;7.63;;;2.80;;
68398;SDS011;56258;52.196;13.868;2023-02-15T02:07:50;6.85;;;2.50;;
68398;SDS011;56258;52.196;13.868;2023-02-15T02:10:20;6.35;;;2.33;;
68398;SDS011;56258;52.196;13.868;2023-02-15T02:12:50;7.03;;;2.83;;
68398;SDS011;56258;52.196;13.868;2023-02-15T02:15:21;6.47;;;2.53;;
68398;SDS011;56258;52.196;13.868;2023-02-15T02:18:10;6.72;;;2.63;;
68398;SDS011;56258;52.196;13.868;2023-02-15T02:26:42;6.72;;;2.45;;
68398;SDS011;56258;52.196;13.868;2023-02-15T02:41:35;6.80;;;2.70;;
68398;SDS011;56258;52.196;13.868;2023-02-15T02:44:14;7.10;;;2.90;;
68398;SDS011;56258;52.196;13.868;2023-02-15T02:46:52;6.38;;;2.40;;
68398;SDS011;56258;52.196;13.868;2023-02-15T02:49:28;7.15;;;2.80;;
68398;SDS011;56258;52.196;13.868;2023-02-15T02:52:04;7.32;;;2.90;;
68398;SDS011;56258;52.196;13.868;2023-02-15T02:54:34;7.35;;;2.80;;
68398;SDS011;56258;52.196;13.868;2023-02-15T02:57:04;6.87;;;2.60;;
68398;SDS011;56258;52.196;13.868;2023-02-15T02:59:39;6.60;;;2.70;;
68398;SDS011;56258;52.196;13.868;2023-02-15T03:04:40;6.97;;;2.90;;
68398;SDS011;56258;52.196;13.868;2023-02-15T03:07:17;7.43;;;2.90;;
68398;SDS011;56258;52.196;13.868;2023-02-15T03:09:49;7.40;;;2.90;;
68398;SDS011;56258;52.196;13.868;2023-02-15T03:12:20;7.38;;;2.90;;
68398;SDS011;56258;52.196;13.868;2023-02-15T03:14:51;7.90;;;3.40;;
68398;SDS011;56258;52.196;13.868;2023-02-15T03:17:22;7.57;;;2.90;;
68398;SDS011;56258;52.196;13.868;2023-02-15T03:19:51;7.13;;;2.80;;
68398;SDS011;56258;52.196;13.868;2023-02-15T03:22:24;7.47;;;2.70;;
68398;SDS011;56258;52.196;13.868;2023-02-15T03:28:02;7.60;;;2.65;;
68398;SDS011;56258;52.196;13.868;2023-02-15T03:30:32;7.03;;;2.72;;
68398;SDS011;56258;52.196;13.868;2023-02-15T03:33:02;7.10;;;3.00;;
68398;SDS011;56258;52.196;13.868;2023-02-15T03:35:33;6.93;;;2.90;;
68398;SDS011;56258;52.196;13.868;2023-02-15T03:38:07;7.22;;;2.90;;
68398;SDS011;56258;52.196;13.868;2023-02-15T03:40:43;7.38;;;2.97;;
68398;SDS011;56258;52.196;13.868;2023-02-15T03:46:33;7.43;;;3.08;;
68398;SDS011;56258;52.196;13.868;2023-02-15T03:49:10;6.83;;;2.73;;
68398;SDS011;56258;52.196;13.868;2023-02-15T03:51:46;7.53;;;2.95;;
68398;SDS011;56258;52.196;13.868;2023-02-15T03:54:20;7.40;;;2.95;;
68398;SDS011;56258;52.196;13.868;2023-02-15T03:57:07;8.25;;;3.28;;
68398;SDS011;56258;52.196;13.868;2023-02-15T03:59:53;7.43;;;3.05;;
68398;SDS011;56258;52.196;13.868;2023-02-15T04:05:21;8.02;;;3.22;;
68398;SDS011;56258;52.196;13.868;2023-02-15T04:07:48;8.00;;;3.20;;
68398;SDS011;56258;52.196;13.868;2023-02-15T04:10:15;7.97;;;3.17;;
68398;SDS011;56258;52.196;13.868;2023-02-15T04:13:00;8.23;;;3.60;;
68398;SDS011;56258;52.196;13.868;2023-02-15T04:15:26;8.00;;;3.13;;
68398;SDS011;56258;52.196;13.868;2023-02-15T04:18:11;7.97;;;3.22;;
68398;SDS011;56258;52.196;13.868;2023-02-15T04:20:38;7.93;;;3.30;;
68398;SDS011;56258;52.196;13.868;2023-02-15T04:23:23;8.75;;;3.72;;
68398;SDS011;56258;52.196;13.868;2023-02-15T04:26:08;8.18;;;3.40;;
68398;SDS011;56258;52.196;13.868;2023-02-15T04:28:35;7.40;;;3.07;;
68398;SDS011;56258;52.196;13.868;2023-02-15T04:31:01;7.78;;;3.15;;
68398;SDS011;56258;52.196;13.868;2023-02-15T04:33:28;7.85;;;3.38;;
68398;SDS011;56258;52.196;13.868;2023-02-15T04:35:54;8.10;;;3.20;;
68398;SDS011;56258;52.196;13.868;2023-02-15T04:38:22;7.78;;;2.92;;
68398;SDS011;56258;52.196;13.868;2023-02-15T04:40:49;8.37;;;3.60;;
68398;SDS011;56258;52.196;13.868;2023-02-15T04:43:20;6.82;;;2.90;;
68398;SDS011;56258;52.196;13.868;2023-02-15T04:45:49;7.50;;;2.92;;
68398;SDS011;56258;52.196;13.868;2023-02-15T04:48:17;8.05;;;3.28;;
68398;SDS011;56258;52.196;13.868;2023-02-15T04:50:44;7.15;;;3.00;;
68398;SDS011;56258;52.196;13.868;2023-02-15T04:53:11;7.23;;;3.03;;
68398;SDS011;56258;52.196;13.868;2023-02-15T04:55:38;8.57;;;3.50;;
68398;SDS011;56258;52.196;13.868;2023-02-15T04:58:04;7.85;;;3.25;;
68398;SDS011;56258;52.196;13.868;2023-02-15T05:00:31;7.28;;;3.15;;
68398;SDS011;56258;52.196;13.868;2023-02-15T05:02:58;6.68;;;2.83;;
68398;SDS011;56258;52.196;13.868;2023-02-15T05:05:24;7.13;;;3.00;;
68398;SDS011;56258;52.196;13.868;2023-02-15T05:07:51;7.13;;;3.00;;
68398;SDS011;56258;52.196;13.868;2023-02-15T05:10:18;7.22;;;2.90;;
68398;SDS011;56258;52.196;13.868;2023-02-15T05:12:44;7.50;;;3.05;;
68398;SDS011;56258;52.196;13.868;2023-02-15T05:15:11;7.13;;;2.90;;
68398;SDS011;56258;52.196;13.868;2023-02-15T05:17:38;6.73;;;2.90;;
68398;SDS011;56258;52.196;13.868;2023-02-15T05:20:05;7.40;;;3.08;;
68398;SDS011;56258;52.196;13.868;2023-02-15T05:22:32;8.40;;;3.60;;
68398;SDS011;56258;52.196;13.868;2023-02-15T05:24:58;8.10;;;3.35;;
68398;SDS011;56258;52.196;13.868;2023-02-15T05:27:43;8.10;;;3.50;;
68398;SDS011;56258;52.196;13.868;2023-02-15T05:30:30;8.87;;;3.50;;
68398;SDS011;56258;52.196;13.868;2023-02-15T05:32:57;9.27;;;3.25;;
68398;SDS011;56258;52.196;13.868;2023-02-15T05:35:23;9.45;;;3.83;;
68398;SDS011;56258;52.196;13.868;2023-02-15T05:37:50;9.75;;;3.63;;
68398;SDS011;56258;52.196;13.868;2023-02-15T05:40:17;8.60;;;3.60;;
68398;SDS011;56258;52.196;13.868;2023-02-15T05:42:43;7.63;;;3.00;;
68398;SDS011;56258;52.196;13.868;2023-02-15T05:45:10;8.45;;;3.58;;
68398;SDS011;56258;52.196;13.868;2023-02-15T05:47:36;8.68;;;4.03;;
68398;SDS011;56258;52.196;13.868;2023-02-15T05:50:03;8.50;;;3.55;;
68398;SDS011;56258;52.196;13.868;2023-02-15T05:52:30;7.88;;;3.30;;
68398;SDS011;56258;52.196;13.868;2023-02-15T05:54:57;9.43;;;3.60;;
68398;SDS011;56258;52.196;13.868;2023-02-15T05:57:25;8.23;;;3.65;;
68398;SDS011;56258;52.196;13.868;2023-02-15T05:59:52;8.65;;;4.00;;
68398;SDS011;56258;52.196;13.868;2023-02-15T06:02:18;8.60;;;3.88;;
68398;SDS011;56258;52.196;13.868;2023-02-15T06:04:45;9.05;;;3.92;;
68398;SDS011;56258;52.196;13.868;2023-02-15T06:07:12;9.27;;;3.80;;
68398;SDS011;56258;52.196;13.868;2023-02-15T06:09:38;8.48;;;3.92;;
68398;SDS011;56258;52.196;13.868;2023-02-15T06:12:05;9.13;;;3.85;;
68398;SDS011;56258;52.196;13.868;2023-02-15T06:14:32;8.30;;;3.90;;
68398;SDS011;56258;52.196;13.868;2023-02-15T06:16:58;8.80;;;3.70;;
68398;SDS011;56258;52.196;13.868;2023-02-15T06:19:25;8.90;;;3.87;;
68398;SDS011;56258;52.196;13.868;2023-02-15T06:21:51;8.60;;;3.50;;
68398;SDS011;56258;52.196;13.868;2023-02-15T06:24:18;9.25;;;4.05;;
68398;SDS011;56258;52.196;13.868;2023-02-15T06:26:44;8.48;;;3.58;;
68398;SDS011;56258;52.196;13.868;2023-02-15T06:29:11;9.10;;;4.10;;
68398;SDS011;56258;52.196;13.868;2023-02-15T06:31:38;9.17;;;3.77;;
68398;SDS011;56258;52.196;13.868;2023-02-15T06:34:04;9.45;;;3.60;;
68398;SDS011;56258;52.196;13.868;2023-02-15T06:36:32;9.07;;;3.78;;
68398;SDS011;56258;52.196;13.868;2023-02-15T06:38:58;9.27;;;3.85;;
68398;SDS011;56258;52.196;13.868;2023-02-15T06:41:25;8.45;;;3.70;;
68398;SDS011;56258;52.196;13.868;2023-02-15T06:43:51;9.37;;;4.00;;
68398;SDS011;56258;52.196;13.868;2023-02-15T06:46:18;9.90;;;4.18;;
68398;SDS011;56258;52.196;13.868;2023-02-15T06:48:44;8.48;;;3.80;;
68398;SDS011;56258;52.196;13.868;2023-02-15T06:51:11;8.82;;;3.85;;
68398;SDS011;56258;52.196;13.868;2023-02-15T06:53:38;9.38;;;4.35;;
68398;SDS011;56258;52.196;13.868;2023-02-15T06:56:07;9.10;;;3.70;;
68398;SDS011;56258;52.196;13.868;2023-02-15T06:58:35;10.70;;;4.40;;
68398;SDS011;56258;52.196;13.868;2023-02-15T07:01:02;10.25;;;4.20;;
68398;SDS011;56258;52.196;13.868;2023-02-15T07:03:29;8.75;;;3.92;;
68398;SDS011;56258;52.196;13.868;2023-02-15T07:05:57;8.88;;;4.00;;
68398;SDS011;56258;52.196;13.868;2023-02-15T07:08:26;9.33;;;3.93;;
68398;SDS011;56258;52.196;13.868;2023-02-15T07:10:53;9.27;;;4.40;;
68398;SDS011;56258;52.196;13.868;2023-02-15T07:13:21;9.73;;;4.07;;
68398;SDS011;56258;52.196;13.868;2023-02-15T07:15:48;9.30;;;3.95;;
68398;SDS011;56258;52.196;13.868;2023-02-15T07:18:14;10.35;;;3.88;;
68398;SDS011;56258;52.196;13.868;2023-02-15T07:20:41;8.73;;;3.83;;
68398;SDS011;56258;52.196;13.868;2023-02-15T07:23:08;10.45;;;4.07;;
68398;SDS011;56258;52.196;13.868;2023-02-15T07:25:35;10.50;;;4.43;;
68398;SDS011;56258;52.196;13.868;2023-02-15T07:28:02;10.95;;;4.00;;
68398;SDS011;56258;52.196;13.868;2023-02-15T07:30:30;9.20;;;4.20;;
68398;SDS011;56258;52.196;13.868;2023-02-15T07:32:57;10.00;;;4.13;;
68398;SDS011;56258;52.196;13.868;2023-02-15T07:35:47;10.30;;;4.30;;
68398;SDS011;56258;52.196;13.868;2023-02-15T07:38:15;9.70;;;4.20;;
68398;SDS011;56258;52.196;13.868;2023-02-15T07:40:42;11.35;;;4.20;;
68398;SDS011;56258;52.196;13.868;2023-02-15T07:43:09;10.50;;;4.40;;
68398;SDS011;56258;52.196;13.868;2023-02-15T07:45:36;9.93;;;4.10;;
68398;SDS011;56258;52.196;13.868;2023-02-15T07:48:03;9.77;;;4.32;;
68398;SDS011;56258;52.196;13.868;2023-02-15T07:50:30;9.25;;;4.20;;
68398;SDS011;56258;52.196;13.868;2023-02-15T07:52:57;10.95;;;4.22;;
68398;SDS011;56258;52.196;13.868;2023-02-15T07:55:24;11.13;;;4.13;;
68398;SDS011;56258;52.196;13.868;2023-02-15T07:57:51;9.17;;;4.17;;
68398;SDS011;56258;52.196;13.868;2023-02-15T08:00:20;9.27;;;4.38;;
68398;SDS011;56258;52.196;13.868;2023-02-15T08:02:52;10.00;;;4.38;;
68398;SDS011;56258;52.196;13.868;2023-02-15T08:05:41;9.98;;;4.45;;
68398;SDS011;56258;52.196;13.868;2023-02-15T08:08:09;9.63;;;4.60;;
68398;SDS011;56258;52.196;13.868;2023-02-15T08:11:15;9.93;;;4.27;;
68398;SDS011;56258;52.196;13.868;2023-02-15T08:13:56;8.82;;;4.20;;
68398;SDS011;56258;52.196;13.868;2023-02-15T08:16:33;9.10;;;4.40;;
68398;SDS011;56258;52.196;13.868;2023-02-15T08:21:46;10.00;;;4.60;;
68398;SDS011;56258;52.196;13.868;2023-02-15T08:24:17;9.40;;;4.30;;
68398;SDS011;56258;52.196;13.868;2023-02-15T08:26:45;9.60;;;4.68;;
68398;SDS011;56258;52.196;13.868;2023-02-15T08:29:14;8.93;;;3.88;;
68398;SDS011;56258;52.196;13.868;2023-02-15T08:31:42;9.30;;;4.30;;
68398;SDS011;56258;52.196;13.868;2023-02-15T08:34:10;9.82;;;4.57;;
68398;SDS011;56258;52.196;13.868;2023-02-15T08:36:39;10.30;;;4.90;;
68398;SDS011;56258;52.196;13.868;2023-02-15T08:39:07;9.90;;;4.28;;
68398;SDS011;56258;52.196;13.868;2023-02-15T08:41:34;9.88;;;4.53;;
68398;SDS011;56258;52.196;13.868;2023-02-15T08:44:04;11.20;;;4.75;;
68398;SDS011;56258;52.196;13.868;2023-02-15T08:46:34;10.75;;;4.45;;
68398;SDS011;56258;52.196;13.868;2023-02-15T08:49:02;10.07;;;4.57;;
68398;SDS011;56258;52.196;13.868;2023-02-15T08:51:31;10.43;;;4.15;;
68398;SDS011;56258;52.196;13.868;2023-02-15T08:54:00;10.23;;;4.45;;
68398;SDS011;56258;52.196;13.868;2023-02-15T08:56:29;10.23;;;4.80;;
68398;SDS011;56258;52.196;13.868;2023-02-15T08:58:58;10.77;;;4.43;;
68398;SDS011;56258;52.196;13.868;2023-02-15T09:01:26;10.17;;;4.63;;
68398;SDS011;56258;52.196;13.868;2023-02-15T09:03:55;12.88;;;4.75;;
68398;SDS011;56258;52.196;13.868;2023-02-15T09:06:23;10.63;;;4.78;;
68398;SDS011;56258;52.196;13.868;2023-02-15T09:08:51;9.82;;;4.53;;
68398;SDS011;56258;52.196;13.868;2023-02-15T09:11:19;10.02;;;4.63;;
68398;SDS011;56258;52.196;13.868;2023-02-15T09:13:54;9.40;;;4.27;;
68398;SDS011;56258;52.196;13.868;2023-02-15T09:16:26;11.70;;;4.50;;
68398;SDS011;56258;52.196;13.868;2023-02-15T09:18:57;10.45;;;4.57;;
68398;SDS011;56258;52.196;13.868;2023-02-15T09:21:24;9.65;;;4.50;;
68398;SDS011;56258;52.196;13.868;2023-02-15T09:23:54;10.05;;;4.65;;
68398;SDS011;56258;52.196;13.868;2023-02-15T09:26:26;10.27;;;4.57;;
68398;SDS011;56258;52.196;13.868;2023-02-15T09:28:55;9.70;;;4.65;;
68398;SDS011;56258;52.196;13.868;2023-02-15T09:31:27;11.02;;;4.93;;
68398;SDS011;56258;52.196;13.868;2023-02-15T09:33:55;10.45;;;4.55;;
68398;SDS011;56258;52.196;13.868;2023-02-15T09:36:23;10.10;;;4.80;;
68398;SDS011;56258;52.196;13.868;2023-02-15T09:38:55;10.43;;;4.73;;
68398;SDS011;56258;52.196;13.868;2023-02-15T09:52:19;10.03;;;4.57;;
68398;SDS011;56258;52.196;13.868;2023-02-15T09:55:05;10.07;;;5.10;;
68398;SDS011;56258;52.196;13.868;2023-02-15T10:00:36;10.55;;;5.10;;
68398;SDS011;56258;52.196;13.868;2023-02-15T10:11:33;11.88;;;4.88;;
68398;SDS011;56258;52.196;13.868;2023-02-15T10:20:28;10.27;;;4.83;;
68398;SDS011;56258;52.196;13.868;2023-02-15T10:34:14;10.23;;;4.27;;
68398;SDS011;56258;52.196;13.868;2023-02-15T10:36:50;9.20;;;4.60;;
68398;SDS011;56258;52.196;13.868;2023-02-15T10:50:56;10.93;;;5.30;;
68398;SDS011;56258;52.196;13.868;2023-02-15T10:58:55;8.38;;;4.45;;
68398;SDS011;56258;52.196;13.868;2023-02-15T11:01:34;9.57;;;4.70;;
68398;SDS011;56258;52.196;13.868;2023-02-15T11:06:44;9.05;;;4.40;;
68398;SDS011;56258;52.196;13.868;2023-02-15T11:09:20;9.55;;;4.38;;
68398;SDS011;56258;52.196;13.868;2023-02-15T11:11:51;9.30;;;4.20;;
68398;SDS011;56258;52.196;13.868;2023-02-15T11:14:44;9.77;;;4.10;;
68398;SDS011;56258;52.196;13.868;2023-02-15T11:17:15;8.18;;;4.18;;
68398;SDS011;56258;52.196;13.868;2023-02-15T11:19:55;9.93;;;4.45;;
68398;SDS011;56258;52.196;13.868;2023-02-15T11:22:27;10.05;;;4.60;;
68398;SDS011;56258;52.196;13.868;2023-02-15T11:24:55;8.80;;;4.18;;
68398;SDS011;56258;52.196;13.868;2023-02-15T11:27:26;9.87;;;4.30;;
68398;SDS011;56258;52.196;13.868;2023-02-15T11:30:09;10.15;;;4.50;;
68398;SDS011;56258;52.196;13.868;2023-02-15T11:32:39;9.07;;;4.18;;
68398;SDS011;56258;52.196;13.868;2023-02-15T11:35:11;9.02;;;4.00;;
68398;SDS011;56258;52.196;13.868;2023-02-15T11:38:06;8.75;;;4.10;;
68398;SDS011;56258;52.196;13.868;2023-02-15T11:40:51;9.87;;;4.03;;
68398;SDS011;56258;52.196;13.868;2023-02-15T11:45:55;8.57;;;4.15;;
68398;SDS011;56258;52.196;13.868;2023-02-15T11:48:22;9.32;;;4.05;;
68398;SDS011;56258;52.196;13.868;2023-02-15T11:50:48;9.27;;;4.03;;
68398;SDS011;56258;52.196;13.868;2023-02-15T11:53:16;8.77;;;3.70;;
68398;SDS011;56258;52.196;13.868;2023-02-15T11:55:48;9.75;;;4.00;;
68398;SDS011;56258;52.196;13.868;2023-02-15T11:58:25;10.02;;;4.03;;
68398;SDS011;56258;52.196;13.868;2023-02-15T12:01:16;10.68;;;4.03;;
68398;SDS011;56258;52.196;13.868;2023-02-15T12:04:06;10.88;;;4.47;;
68398;SDS011;56258;52.196;13.868;2023-02-15T12:06:38;9.73;;;3.77;;
68398;SDS011;56258;52.196;13.868;2023-02-15T12:09:20;8.85;;;3.83;;
68398;SDS011;56258;52.196;13.868;2023-02-15T12:14:54;9.45;;;4.20;;
68398;SDS011;56258;52.196;13.868;2023-02-15T12:17:32;10.90;;;4.20;;
68398;SDS011;56258;52.196;13.868;2023-02-15T12:20:03;9.03;;;3.67;;
68398;SDS011;56258;52.196;13.868;2023-02-15T12:22:54;9.80;;;3.95;;
68398;SDS011;56258;52.196;13.868;2023-02-15T12:27:59;7.93;;;3.33;;
68398;SDS011;56258;52.196;13.868;2023-02-15T12:30:33;8.32;;;3.80;;
68398;SDS011;56258;52.196;13.868;2023-02-15T12:33:14;10.07;;;3.53;;
68398;SDS011;56258;52.196;13.868;2023-02-15T12:35:43;8.98;;;3.95;;
68398;SDS011;56258;52.196;13.868;2023-02-15T12:40:37;8.80;;;3.67;;
68398;SDS011;56258;52.196;13.868;2023-02-15T12:43:04;8.13;;;3.00;;
68398;SDS011;56258;52.196;13.868;2023-02-15T12:45:37;8.23;;;4.10;;
68398;SDS011;56258;52.196;13.868;2023-02-15T12:50:34;8.85;;;4.00;;
68398;SDS011;56258;52.196;13.868;2023-02-15T12:53:17;7.82;;;3.83;;
68398;SDS011;56258;52.196;13.868;2023-02-15T12:55:59;8.40;;;3.97;;
68398;SDS011;56258;52.196;13.868;2023-02-15T12:58:27;8.80;;;4.33;;
68398;SDS011;56258;52.196;13.868;2023-02-15T13:03:36;8.80;;;4.43;;
68398;SDS011;56258;52.196;13.868;2023-02-15T13:06:24;7.22;;;3.40;;
68398;SDS011;56258;52.196;13.868;2023-02-15T13:08:52;6.95;;;3.38;;
68398;SDS011;56258;52.196;13.868;2023-02-15T13:11:22;7.93;;;3.60;;
68398;SDS011;56258;52.196;13.868;2023-02-15T13:14:01;7.32;;;3.45;;
68398;SDS011;56258;52.196;13.868;2023-02-15T13:16:40;7.05;;;3.38;;
68398;SDS011;56258;52.196;13.868;2023-02-15T13:19:12;6.95;;;3.30;;
68398;SDS011;56258;52.196;13.868;2023-02-15T13:21:44;7.00;;;3.15;;
68398;SDS011;56258;52.196;13.868;2023-02-15T13:24:18;7.73;;;3.30;;
68398;SDS011;56258;52.196;13.868;2023-02-15T13:26:49;8.02;;;3.53;;
68398;SDS011;56258;52.196;13.868;2023-02-15T13:29:27;7.28;;;3.40;;
68398;SDS011;56258;52.196;13.868;2023-02-15T13:31:57;6.68;;;2.88;;
68398;SDS011;56258;52.196;13.868;2023-02-15T13:34:33;7.47;;;3.20;;
68398;SDS011;56258;52.196;13.868;2023-02-15T13:37:16;14.30;;;3.67;;
68398;SDS011;56258;52.196;13.868;2023-02-15T13:39:49;9.35;;;2.80;;
68398;SDS011;56258;52.196;13.868;2023-02-15T13:42:32;8.45;;;3.25;;
68398;SDS011;56258;52.196;13.868;2023-02-15T13:51:03;8.50;;;3.20;;
68398;SDS011;56258;52.196;13.868;2023-02-15T13:53:42;10.82;;;2.83;;
68398;SDS011;56258;52.196;13.868;2023-02-15T13:56:52;8.32;;;2.97;;
68398;SDS011;56258;52.196;13.868;2023-02-15T13:59:49;8.05;;;2.92;;
68398;SDS011;56258;52.196;13.868;2023-02-15T14:08:11;7.43;;;2.85;;
68398;SDS011;56258;52.196;13.868;2023-02-15T14:13:49;7.38;;;3.15;;
68398;SDS011;56258;52.196;13.868;2023-02-15T14:19:35;7.37;;;2.87;;
68398;SDS011;56258;52.196;13.868;2023-02-15T14:27:54;7.35;;;2.92;;
68398;SDS011;56258;52.196;13.868;2023-02-15T14:30:33;6.53;;;2.80;;
68398;SDS011;56258;52.196;13.868;2023-02-15T14:36:05;7.35;;;2.63;;
68398;SDS011;56258;52.196;13.868;2023-02-15T14:38:39;7.03;;;2.60;;
68398;SDS011;56258;52.196;13.868;2023-02-15T14:41:39;6.82;;;2.70;;
68398;SDS011;56258;52.196;13.868;2023-02-15T14:46:57;6.50;;;2.60;;
68398;SDS011;56258;52.196;13.868;2023-02-15T14:49:26;6.80;;;2.20;;
68398;SDS011;56258;52.196;13.868;2023-02-15T14:52:00;6.30;;;2.70;;
68398;SDS011;56258;52.196;13.868;2023-02-15T15:02:13;7.53;;;2.50;;
68398;SDS011;56258;52.196;13.868;2023-02-15T15:07:37;6.47;;;2.25;;
68398;SDS011;56258;52.196;13.868;2023-02-15T15:12:55;5.90;;;2.20;;
68398;SDS011;56258;52.196;13.868;2023-02-15T15:18:03;6.38;;;2.20;;
68398;SDS011;56258;52.196;13.868;2023-02-15T15:25:43;6.60;;;2.13;;
68398;SDS011;56258;52.196;13.868;2023-02-15T15:28:56;6.63;;;2.08;;
68398;SDS011;56258;52.196;13.868;2023-02-15T15:33:52;6.10;;;2.03;;
68398;SDS011;56258;52.196;13.868;2023-02-15T15:36:52;8.45;;;2.47;;
68398;SDS011;56258;52.196;13.868;2023-02-15T15:48:32;7.78;;;2.10;;
68398;SDS011;56258;52.196;13.868;2023-02-15T15:51:06;6.55;;;1.92;;
68398;SDS011;56258;52.196;13.868;2023-02-15T15:53:57;6.93;;;1.93;;
68398;SDS011;56258;52.196;13.868;2023-02-15T15:56:34;6.72;;;1.80;;
68398;SDS011;56258;52.196;13.868;2023-02-15T15:59:06;5.80;;;1.90;;
68398;SDS011;56258;52.196;13.868;2023-02-15T16:01:40;6.40;;;1.90;;
68398;SDS011;56258;52.196;13.868;2023-02-15T16:04:12;6.20;;;1.80;;
68398;SDS011;56258;52.196;13.868;2023-02-15T16:06:48;7.73;;;1.90;;
68398;SDS011;56258;52.196;13.868;2023-02-15T16:09:25;7.07;;;2.10;;
68398;SDS011;56258;52.196;13.868;2023-02-15T16:11:56;6.35;;;2.15;;
68398;SDS011;56258;52.196;13.868;2023-02-15T16:14:31;6.80;;;1.92;;
68398;SDS011;56258;52.196;13.868;2023-02-15T16:17:02;6.28;;;1.88;;
68398;SDS011;56258;52.196;13.868;2023-02-15T16:19:36;6.67;;;1.83;;
68398;SDS011;56258;52.196;13.868;2023-02-15T16:22:13;6.35;;;1.77;;
68398;SDS011;56258;52.196;13.868;2023-02-15T16:27:35;6.55;;;1.63;;
68398;SDS011;56258;52.196;13.868;2023-02-15T16:33:16;6.33;;;1.63;;
68398;SDS011;56258;52.196;13.868;2023-02-15T16:35:55;5.43;;;1.40;;
68398;SDS011;56258;52.196;13.868;2023-02-15T16:38:34;6.25;;;1.80;;
68398;SDS011;56258;52.196;13.868;2023-02-15T16:41:12;5.68;;;1.38;;
68398;SDS011;56258;52.196;13.868;2023-02-15T16:43:42;5.47;;;1.60;;
68398;SDS011;56258;52.196;13.868;2023-02-15T16:46:14;7.57;;;1.80;;
68398;SDS011;56258;52.196;13.868;2023-02-15T16:48:47;7.63;;;1.50;;
68398;SDS011;56258;52.196;13.868;2023-02-15T16:51:22;6.68;;;1.73;;
68398;SDS011;56258;52.196;13.868;2023-02-15T16:53:54;5.28;;;1.30;;
68398;SDS011;56258;52.196;13.868;2023-02-15T16:56:22;5.68;;;1.38;;
68398;SDS011;56258;52.196;13.868;2023-02-15T16:58:53;6.57;;;1.30;;
68398;SDS011;56258;52.196;13.868;2023-02-15T17:01:22;5.95;;;1.40;;
68398;SDS011;56258;52.196;13.868;2023-02-15T17:04:10;8.35;;;1.40;;
68398;SDS011;56258;52.196;13.868;2023-02-15T17:06:38;6.43;;;1.60;;
68398;SDS011;56258;52.196;13.868;2023-02-15T17:09:05;6.18;;;1.55;;
68398;SDS011;56258;52.196;13.868;2023-02-15T17:11:40;5.50;;;1.13;;
68398;SDS011;56258;52.196;13.868;2023-02-15T17:16:43;8.02;;;1.50;;
68398;SDS011;56258;52.196;13.868;2023-02-15T17:19:27;5.93;;;1.50;;
68398;SDS011;56258;52.196;13.868;2023-02-15T17:22:05;7.03;;;1.40;;
68398;SDS011;56258;52.196;13.868;2023-02-15T17:24:34;5.80;;;1.43;;
68398;SDS011;56258;52.196;13.868;2023-02-15T17:27:05;6.00;;;1.40;;
68398;SDS011;56258;52.196;13.868;2023-02-15T17:29:57;5.78;;;1.27;;
68398;SDS011;56258;52.196;13.868;2023-02-15T17:32:31;5.35;;;1.50;;
68398;SDS011;56258;52.196;13.868;2023-02-15T17:40:23;7.03;;;1.30;;
68398;SDS011;56258;52.196;13.868;2023-02-15T17:42:54;6.25;;;1.23;;
68398;SDS011;56258;52.196;13.868;2023-02-15T17:45:21;5.43;;;1.30;;
68398;SDS011;56258;52.196;13.868;2023-02-15T17:47:51;5.68;;;1.20;;
68398;SDS011;56258;52.196;13.868;2023-02-15T17:50:19;5.17;;;1.33;;
68398;SDS011;56258;52.196;13.868;2023-02-15T17:52:47;5.90;;;1.40;;
68398;SDS011;56258;52.196;13.868;2023-02-15T17:55:16;6.10;;;1.23;;
68398;SDS011;56258;52.196;13.868;2023-02-15T17:58:07;6.03;;;1.25;;
68398;SDS011;56258;52.196;13.868;2023-02-15T18:00:44;6.40;;;1.25;;
68398;SDS011;56258;52.196;13.868;2023-02-15T18:03:46;5.37;;;1.20;;
68398;SDS011;56258;52.196;13.868;2023-02-15T18:06:36;5.45;;;1.38;;
68398;SDS011;56258;52.196;13.868;2023-02-15T18:09:23;5.82;;;1.20;;
68398;SDS011;56258;52.196;13.868;2023-02-15T18:12:17;4.68;;;1.10;;